sensor_id;sensor_type;location;lat;lon;timestamp;temperature;humidity
32296;DHT22;18781;51.550;5.418;2023-04-03T00:01:01;6.90;62.00
32296;DHT22;18781;51.550;5.418;2023-04-03T00:03:27;6.90;62.10
32296;DHT22;18781;51.550;5.418;2023-04-03T00:05:53;6.90;62.10
32296;DHT22;18781;51.550;5.418;2023-04-03T00:08:18;6.80;62.10
32296;DHT22;18781;51.550;5.418;2023-04-03T00:10:44;6.80;62.20
32296;DHT22;18781;51.550;5.418;2023-04-03T00:13:10;6.80;62.30
32296;DHT22;18781;51.550;5.418;2023-04-03T00:15:37;6.80;62.30
32296;DHT22;18781;51.550;5.418;2023-04-03T00:18:04;6.80;62.20
32296;DHT22;18781;51.550;5.418;2023-04-03T00:20:30;6.70;62.40
32296;DHT22;18781;51.550;5.418;2023-04-03T00:22:57;6.70;62.50
32296;DHT22;18781;51.550;5.418;2023-04-03T00:25:22;6.70;62.40
32296;DHT22;18781;51.550;5.418;2023-04-03T00:27:48;6.60;62.40
32296;DHT22;18781;51.550;5.418;2023-04-03T00:30:16;6.60;62.40
32296;DHT22;18781;51.550;5.418;2023-04-03T00:32:42;6.60;62.60
32296;DHT22;18781;51.550;5.418;2023-04-03T00:35:09;6.50;62.50
32296;DHT22;18781;51.550;5.418;2023-04-03T00:37:37;6.50;62.50
32296;DHT22;18781;51.550;5.418;2023-04-03T00:40:03;6.50;62.70
32296;DHT22;18781;51.550;5.418;2023-04-03T00:42:29;6.40;62.70
32296;DHT22;18781;51.550;5.418;2023-04-03T00:47:23;6.40;62.60
32296;DHT22;18781;51.550;5.418;2023-04-03T00:49:50;6.40;62.80
32296;DHT22;18781;51.550;5.418;2023-04-03T00:52:20;6.30;62.90
32296;DHT22;18781;51.550;5.418;2023-04-03T00:54:49;6.30;62.90
32296;DHT22;18781;51.550;5.418;2023-04-03T00:57:16;6.30;62.90
32296;DHT22;18781;51.550;5.418;2023-04-03T00:59:48;6.30;63.00
32296;DHT22;18781;51.550;5.418;2023-04-03T01:02:15;6.30;63.50
32296;DHT22;18781;51.550;5.418;2023-04-03T01:04:43;6.30;63.20
32296;DHT22;18781;51.550;5.418;2023-04-03T01:07:21;6.20;63.20
32296;DHT22;18781;51.550;5.418;2023-04-03T01:09:48;6.20;63.70
32296;DHT22;18781;51.550;5.418;2023-04-03T01:14:55;6.20;63.70
32296;DHT22;18781;51.550;5.418;2023-04-03T01:17:28;6.10;64.10
32296;DHT22;18781;51.550;5.418;2023-04-03T01:25:31;6.00;64.20
32296;DHT22;18781;51.550;5.418;2023-04-03T01:27:56;6.00;63.60
32296;DHT22;18781;51.550;5.418;2023-04-03T01:30:27;6.00;63.70
32296;DHT22;18781;51.550;5.418;2023-04-03T01:32:56;6.00;63.90
32296;DHT22;18781;51.550;5.418;2023-04-03T01:35:21;6.00;63.80
32296;DHT22;18781;51.550;5.418;2023-04-03T01:37:47;6.00;63.80
32296;DHT22;18781;51.550;5.418;2023-04-03T01:40:12;6.00;63.80
32296;DHT22;18781;51.550;5.418;2023-04-03T01:42:38;6.00;63.80
32296;DHT22;18781;51.550;5.418;2023-04-03T01:45:04;6.00;63.90
32296;DHT22;18781;51.550;5.418;2023-04-03T01:47:30;6.00;64.00
32296;DHT22;18781;51.550;5.418;2023-04-03T01:49:55;5.90;64.00
32296;DHT22;18781;51.550;5.418;2023-04-03T01:52:21;5.90;64.00
32296;DHT22;18781;51.550;5.418;2023-04-03T01:54:46;5.90;64.00
32296;DHT22;18781;51.550;5.418;2023-04-03T01:57:12;5.90;64.10
32296;DHT22;18781;51.550;5.418;2023-04-03T01:59:40;5.90;64.10
32296;DHT22;18781;51.550;5.418;2023-04-03T02:02:06;5.90;64.10
32296;DHT22;18781;51.550;5.418;2023-04-03T02:04:31;5.90;64.10
32296;DHT22;18781;51.550;5.418;2023-04-03T02:06:57;5.90;64.10
32296;DHT22;18781;51.550;5.418;2023-04-03T02:09:22;5.90;64.10
32296;DHT22;18781;51.550;5.418;2023-04-03T02:11:48;5.90;64.10
32296;DHT22;18781;51.550;5.418;2023-04-03T02:14:13;5.90;64.20
32296;DHT22;18781;51.550;5.418;2023-04-03T02:16:39;5.80;64.20
32296;DHT22;18781;51.550;5.418;2023-04-03T02:19:05;5.80;64.10
32296;DHT22;18781;51.550;5.418;2023-04-03T02:21:30;5.80;64.10
32296;DHT22;18781;51.550;5.418;2023-04-03T02:23:56;5.80;64.20
32296;DHT22;18781;51.550;5.418;2023-04-03T02:26:22;5.80;64.30
32296;DHT22;18781;51.550;5.418;2023-04-03T02:28:47;5.80;64.30
32296;DHT22;18781;51.550;5.418;2023-04-03T02:31:13;5.80;64.30
32296;DHT22;18781;51.550;5.418;2023-04-03T02:33:39;5.80;64.30
32296;DHT22;18781;51.550;5.418;2023-04-03T02:36:06;5.70;64.80
32296;DHT22;18781;51.550;5.418;2023-04-03T02:38:32;5.80;64.40
32296;DHT22;18781;51.550;5.418;2023-04-03T02:41:09;5.80;64.50
32296;DHT22;18781;51.550;5.418;2023-04-03T02:43:36;5.70;64.90
32296;DHT22;18781;51.550;5.418;2023-04-03T02:46:02;5.80;64.40
32296;DHT22;18781;51.550;5.418;2023-04-03T02:48:27;5.70;64.40
32296;DHT22;18781;51.550;5.418;2023-04-03T02:50:53;5.70;64.40
32296;DHT22;18781;51.550;5.418;2023-04-03T02:53:19;5.70;64.40
32296;DHT22;18781;51.550;5.418;2023-04-03T02:55:45;5.70;64.40
32296;DHT22;18781;51.550;5.418;2023-04-03T02:58:11;5.70;64.50
32296;DHT22;18781;51.550;5.418;2023-04-03T03:00:37;5.70;64.40
32296;DHT22;18781;51.550;5.418;2023-04-03T03:03:03;5.70;64.30
32296;DHT22;18781;51.550;5.418;2023-04-03T03:05:29;5.70;64.40
32296;DHT22;18781;51.550;5.418;2023-04-03T03:07:55;5.70;64.40
32296;DHT22;18781;51.550;5.418;2023-04-03T03:10:21;5.60;64.30
32296;DHT22;18781;51.550;5.418;2023-04-03T03:12:47;5.60;64.30
32296;DHT22;18781;51.550;5.418;2023-04-03T03:15:12;5.60;64.50
32296;DHT22;18781;51.550;5.418;2023-04-03T03:17:38;5.60;64.40
32296;DHT22;18781;51.550;5.418;2023-04-03T03:20:05;5.60;64.50
32296;DHT22;18781;51.550;5.418;2023-04-03T03:22:31;5.60;64.40
32296;DHT22;18781;51.550;5.418;2023-04-03T03:24:56;5.60;64.50
32296;DHT22;18781;51.550;5.418;2023-04-03T03:27:22;5.60;64.60
32296;DHT22;18781;51.550;5.418;2023-04-03T03:29:47;5.60;64.60
32296;DHT22;18781;51.550;5.418;2023-04-03T03:32:13;5.60;64.50
32296;DHT22;18781;51.550;5.418;2023-04-03T03:34:39;5.60;64.60
32296;DHT22;18781;51.550;5.418;2023-04-03T03:37:04;5.60;64.60
32296;DHT22;18781;51.550;5.418;2023-04-03T03:39:30;5.60;64.60
32296;DHT22;18781;51.550;5.418;2023-04-03T03:41:56;5.60;64.70
32296;DHT22;18781;51.550;5.418;2023-04-03T03:44:21;5.60;64.70
32296;DHT22;18781;51.550;5.418;2023-04-03T03:46:47;5.60;64.90
32296;DHT22;18781;51.550;5.418;2023-04-03T03:49:12;5.60;64.70
32296;DHT22;18781;51.550;5.418;2023-04-03T03:51:38;5.60;64.70
32296;DHT22;18781;51.550;5.418;2023-04-03T03:54:05;5.60;64.90
32296;DHT22;18781;51.550;5.418;2023-04-03T03:56:31;5.60;64.80
32296;DHT22;18781;51.550;5.418;2023-04-03T03:58:57;5.60;64.80
32296;DHT22;18781;51.550;5.418;2023-04-03T04:01:23;5.60;64.80
32296;DHT22;18781;51.550;5.418;2023-04-03T04:03:49;5.60;64.70
32296;DHT22;18781;51.550;5.418;2023-04-03T04:06:15;5.60;64.70
32296;DHT22;18781;51.550;5.418;2023-04-03T04:08:41;5.60;64.70
32296;DHT22;18781;51.550;5.418;2023-04-03T04:11:08;5.60;64.70
32296;DHT22;18781;51.550;5.418;2023-04-03T04:13:34;5.60;64.70
32296;DHT22;18781;51.550;5.418;2023-04-03T04:16:00;5.60;64.70
32296;DHT22;18781;51.550;5.418;2023-04-03T04:18:25;5.60;65.20
32296;DHT22;18781;51.550;5.418;2023-04-03T04:20:51;5.60;64.70
32296;DHT22;18781;51.550;5.418;2023-04-03T04:23:18;5.60;64.60
32296;DHT22;18781;51.550;5.418;2023-04-03T04:25:47;5.50;64.50
32296;DHT22;18781;51.550;5.418;2023-04-03T04:28:13;5.50;64.60
32296;DHT22;18781;51.550;5.418;2023-04-03T04:30:39;5.60;64.60
32296;DHT22;18781;51.550;5.418;2023-04-03T04:33:05;5.50;64.60
32296;DHT22;18781;51.550;5.418;2023-04-03T04:35:30;5.50;64.50
32296;DHT22;18781;51.550;5.418;2023-04-03T04:37:56;5.50;64.60
32296;DHT22;18781;51.550;5.418;2023-04-03T04:40:22;5.50;64.50
32296;DHT22;18781;51.550;5.418;2023-04-03T04:42:48;5.50;64.50
32296;DHT22;18781;51.550;5.418;2023-04-03T04:45:13;5.50;64.60
32296;DHT22;18781;51.550;5.418;2023-04-03T04:47:40;5.50;64.60
32296;DHT22;18781;51.550;5.418;2023-04-03T04:50:06;5.50;64.70
32296;DHT22;18781;51.550;5.418;2023-04-03T04:52:32;5.50;64.70
32296;DHT22;18781;51.550;5.418;2023-04-03T04:54:57;5.50;64.70
32296;DHT22;18781;51.550;5.418;2023-04-03T04:57:23;5.40;64.70
32296;DHT22;18781;51.550;5.418;2023-04-03T04:59:48;5.40;64.70
32296;DHT22;18781;51.550;5.418;2023-04-03T05:02:14;5.40;64.70
32296;DHT22;18781;51.550;5.418;2023-04-03T05:04:40;5.40;64.90
32296;DHT22;18781;51.550;5.418;2023-04-03T05:07:06;5.40;64.90
32296;DHT22;18781;51.550;5.418;2023-04-03T05:09:31;5.40;64.90
32296;DHT22;18781;51.550;5.418;2023-04-03T05:11:57;5.40;65.50
32296;DHT22;18781;51.550;5.418;2023-04-03T05:14:22;5.40;64.90
32296;DHT22;18781;51.550;5.418;2023-04-03T05:16:49;5.40;65.10
32296;DHT22;18781;51.550;5.418;2023-04-03T05:19:18;5.40;64.90
32296;DHT22;18781;51.550;5.418;2023-04-03T05:21:44;5.40;65.00
32296;DHT22;18781;51.550;5.418;2023-04-03T05:24:09;5.30;64.90
32296;DHT22;18781;51.550;5.418;2023-04-03T05:26:35;5.30;65.00
32296;DHT22;18781;51.550;5.418;2023-04-03T05:29:00;5.40;65.00
32296;DHT22;18781;51.550;5.418;2023-04-03T05:31:26;5.40;65.00
32296;DHT22;18781;51.550;5.418;2023-04-03T05:33:54;5.40;65.10
32296;DHT22;18781;51.550;5.418;2023-04-03T05:36:20;5.40;65.00
32296;DHT22;18781;51.550;5.418;2023-04-03T05:38:47;5.40;65.00
32296;DHT22;18781;51.550;5.418;2023-04-03T05:41:14;5.40;65.00
32296;DHT22;18781;51.550;5.418;2023-04-03T05:43:39;5.30;64.90
32296;DHT22;18781;51.550;5.418;2023-04-03T05:46:13;5.30;64.90
32296;DHT22;18781;51.550;5.418;2023-04-03T05:48:38;5.30;65.00
32296;DHT22;18781;51.550;5.418;2023-04-03T05:51:05;5.40;65.00
32296;DHT22;18781;51.550;5.418;2023-04-03T05:53:34;5.40;64.90
32296;DHT22;18781;51.550;5.418;2023-04-03T05:56:00;5.40;64.80
32296;DHT22;18781;51.550;5.418;2023-04-03T05:58:26;5.40;65.40
32296;DHT22;18781;51.550;5.418;2023-04-03T06:00:51;5.30;64.80
32296;DHT22;18781;51.550;5.418;2023-04-03T06:03:17;5.30;64.80
32296;DHT22;18781;51.550;5.418;2023-04-03T06:05:43;5.40;65.00
32296;DHT22;18781;51.550;5.418;2023-04-03T06:08:08;5.40;64.90
32296;DHT22;18781;51.550;5.418;2023-04-03T06:10:34;5.40;65.00
32296;DHT22;18781;51.550;5.418;2023-04-03T06:13:00;5.40;65.00
32296;DHT22;18781;51.550;5.418;2023-04-03T06:15:26;5.40;65.00
32296;DHT22;18781;51.550;5.418;2023-04-03T06:17:52;5.40;65.00
32296;DHT22;18781;51.550;5.418;2023-04-03T06:20:18;5.40;65.00
32296;DHT22;18781;51.550;5.418;2023-04-03T06:22:43;5.40;64.90
32296;DHT22;18781;51.550;5.418;2023-04-03T06:25:09;5.50;65.00
32296;DHT22;18781;51.550;5.418;2023-04-03T06:27:35;5.50;64.90
32296;DHT22;18781;51.550;5.418;2023-04-03T06:30:01;5.50;64.80
32296;DHT22;18781;51.550;5.418;2023-04-03T06:32:26;5.50;64.90
32296;DHT22;18781;51.550;5.418;2023-04-03T06:34:52;5.50;64.90
32296;DHT22;18781;51.550;5.418;2023-04-03T06:37:21;5.50;65.00
32296;DHT22;18781;51.550;5.418;2023-04-03T06:39:47;5.60;64.80
32296;DHT22;18781;51.550;5.418;2023-04-03T06:42:13;5.60;64.80
32296;DHT22;18781;51.550;5.418;2023-04-03T06:44:39;5.70;64.80
32296;DHT22;18781;51.550;5.418;2023-04-03T06:47:05;5.70;64.80
32296;DHT22;18781;51.550;5.418;2023-04-03T06:49:31;5.70;64.60
32296;DHT22;18781;51.550;5.418;2023-04-03T06:51:57;5.80;64.40
32296;DHT22;18781;51.550;5.418;2023-04-03T06:54:22;5.80;64.30
32296;DHT22;18781;51.550;5.418;2023-04-03T06:56:48;5.90;64.20
32296;DHT22;18781;51.550;5.418;2023-04-03T06:59:14;5.90;64.10
32296;DHT22;18781;51.550;5.418;2023-04-03T07:01:41;5.90;64.20
32296;DHT22;18781;51.550;5.418;2023-04-03T07:04:07;6.00;64.00
32296;DHT22;18781;51.550;5.418;2023-04-03T07:06:33;6.00;63.70
32296;DHT22;18781;51.550;5.418;2023-04-03T07:09:00;6.10;63.80
32296;DHT22;18781;51.550;5.418;2023-04-03T07:11:26;6.10;64.20
32296;DHT22;18781;51.550;5.418;2023-04-03T07:13:52;6.20;64.30
32296;DHT22;18781;51.550;5.418;2023-04-03T07:16:17;6.20;64.40
32296;DHT22;18781;51.550;5.418;2023-04-03T07:18:44;6.20;64.30
32296;DHT22;18781;51.550;5.418;2023-04-03T07:21:10;6.30;63.60
32296;DHT22;18781;51.550;5.418;2023-04-03T07:23:36;6.40;63.70
32296;DHT22;18781;51.550;5.418;2023-04-03T07:26:01;6.40;63.50
32296;DHT22;18781;51.550;5.418;2023-04-03T07:28:27;6.50;63.40
32296;DHT22;18781;51.550;5.418;2023-04-03T07:31:00;6.50;63.60
32296;DHT22;18781;51.550;5.418;2023-04-03T07:33:26;6.50;63.80
32296;DHT22;18781;51.550;5.418;2023-04-03T07:35:52;6.60;63.70
32296;DHT22;18781;51.550;5.418;2023-04-03T07:38:18;6.60;63.70
32296;DHT22;18781;51.550;5.418;2023-04-03T07:40:48;6.70;63.80
32296;DHT22;18781;51.550;5.418;2023-04-03T07:43:15;6.70;63.30
32296;DHT22;18781;51.550;5.418;2023-04-03T07:45:41;6.80;62.20
32296;DHT22;18781;51.550;5.418;2023-04-03T07:48:12;6.90;62.50
32296;DHT22;18781;51.550;5.418;2023-04-03T07:50:40;6.90;62.20
32296;DHT22;18781;51.550;5.418;2023-04-03T07:53:06;7.00;62.70
32296;DHT22;18781;51.550;5.418;2023-04-03T07:55:32;7.00;62.60
32296;DHT22;18781;51.550;5.418;2023-04-03T07:57:58;7.10;61.90
32296;DHT22;18781;51.550;5.418;2023-04-03T08:00:23;7.10;62.20
32296;DHT22;18781;51.550;5.418;2023-04-03T08:02:50;7.20;62.30
32296;DHT22;18781;51.550;5.418;2023-04-03T08:05:20;7.30;62.00
32296;DHT22;18781;51.550;5.418;2023-04-03T08:07:47;7.30;61.80
32296;DHT22;18781;51.550;5.418;2023-04-03T08:10:13;7.40;61.90
32296;DHT22;18781;51.550;5.418;2023-04-03T08:12:39;7.40;60.90
32296;DHT22;18781;51.550;5.418;2023-04-03T08:15:06;7.50;61.30
32296;DHT22;18781;51.550;5.418;2023-04-03T08:17:32;7.50;61.10
32296;DHT22;18781;51.550;5.418;2023-04-03T08:19:58;7.60;60.00
32296;DHT22;18781;51.550;5.418;2023-04-03T08:22:23;7.60;60.60
32296;DHT22;18781;51.550;5.418;2023-04-03T08:24:49;7.60;60.90
32296;DHT22;18781;51.550;5.418;2023-04-03T08:27:15;7.70;60.50
32296;DHT22;18781;51.550;5.418;2023-04-03T08:29:41;7.80;59.90
32296;DHT22;18781;51.550;5.418;2023-04-03T08:32:06;7.80;59.80
32296;DHT22;18781;51.550;5.418;2023-04-03T08:34:32;7.80;59.60
32296;DHT22;18781;51.550;5.418;2023-04-03T08:37:02;7.90;59.10
32296;DHT22;18781;51.550;5.418;2023-04-03T08:39:28;8.00;58.50
32296;DHT22;18781;51.550;5.418;2023-04-03T08:41:56;8.00;58.50
32296;DHT22;18781;51.550;5.418;2023-04-03T08:44:46;8.00;59.30
32296;DHT22;18781;51.550;5.418;2023-04-03T08:49:44;8.20;58.00
32296;DHT22;18781;51.550;5.418;2023-04-03T08:52:19;8.20;57.80
32296;DHT22;18781;51.550;5.418;2023-04-03T08:55:02;8.30;58.40
32296;DHT22;18781;51.550;5.418;2023-04-03T08:57:31;8.30;57.60
32296;DHT22;18781;51.550;5.418;2023-04-03T09:00:01;8.40;57.10
32296;DHT22;18781;51.550;5.418;2023-04-03T09:02:33;8.50;55.40
32296;DHT22;18781;51.550;5.418;2023-04-03T09:04:59;8.60;55.00
32296;DHT22;18781;51.550;5.418;2023-04-03T09:07:36;8.70;52.80
32296;DHT22;18781;51.550;5.418;2023-04-03T09:10:04;8.70;53.40
32296;DHT22;18781;51.550;5.418;2023-04-03T09:12:42;8.80;51.90
32296;DHT22;18781;51.550;5.418;2023-04-03T09:15:19;8.80;52.20
32296;DHT22;18781;51.550;5.418;2023-04-03T09:20:45;8.90;52.80
32296;DHT22;18781;51.550;5.418;2023-04-03T09:23:22;9.00;50.80
32296;DHT22;18781;51.550;5.418;2023-04-03T09:25:51;9.00;51.10
32296;DHT22;18781;51.550;5.418;2023-04-03T09:28:18;9.00;51.10
32296;DHT22;18781;51.550;5.418;2023-04-03T09:30:44;9.10;50.50
32296;DHT22;18781;51.550;5.418;2023-04-03T09:33:11;9.10;50.90
32296;DHT22;18781;51.550;5.418;2023-04-03T09:35:40;9.20;51.00
32296;DHT22;18781;51.550;5.418;2023-04-03T09:40:40;9.30;50.20
32296;DHT22;18781;51.550;5.418;2023-04-03T09:43:22;9.40;47.50
32296;DHT22;18781;51.550;5.418;2023-04-03T09:45:49;9.50;47.90
32296;DHT22;18781;51.550;5.418;2023-04-03T09:48:19;9.60;46.50
32296;DHT22;18781;51.550;5.418;2023-04-03T09:50:53;9.60;44.50
32296;DHT22;18781;51.550;5.418;2023-04-03T09:53:37;9.70;40.80
32296;DHT22;18781;51.550;5.418;2023-04-03T09:56:25;9.70;41.30
32296;DHT22;18781;51.550;5.418;2023-04-03T09:59:08;9.70;43.70
32296;DHT22;18781;51.550;5.418;2023-04-03T10:01:39;9.70;43.90
32296;DHT22;18781;51.550;5.418;2023-04-03T10:04:15;9.80;42.80
32296;DHT22;18781;51.550;5.418;2023-04-03T10:09:30;9.90;40.40
32296;DHT22;18781;51.550;5.418;2023-04-03T10:12:06;10.00;42.30
32296;DHT22;18781;51.550;5.418;2023-04-03T10:14:38;10.00;42.40
32296;DHT22;18781;51.550;5.418;2023-04-03T10:25:40;10.20;41.20
32296;DHT22;18781;51.550;5.418;2023-04-03T10:28:31;10.30;42.00
32296;DHT22;18781;51.550;5.418;2023-04-03T10:36:29;10.40;39.40
32296;DHT22;18781;51.550;5.418;2023-04-03T10:49:42;10.60;37.50
32296;DHT22;18781;51.550;5.418;2023-04-03T10:54:54;10.70;38.90
32296;DHT22;18781;51.550;5.418;2023-04-03T10:57:23;10.80;39.40
32296;DHT22;18781;51.550;5.418;2023-04-03T10:59:56;10.80;37.70
32296;DHT22;18781;51.550;5.418;2023-04-03T11:02:39;10.90;35.20
32296;DHT22;18781;51.550;5.418;2023-04-03T11:08:04;11.00;35.90
32296;DHT22;18781;51.550;5.418;2023-04-03T11:10:45;11.00;36.10
32296;DHT22;18781;51.550;5.418;2023-04-03T11:13:22;11.00;37.80
32296;DHT22;18781;51.550;5.418;2023-04-03T11:15:53;11.00;37.20
32296;DHT22;18781;51.550;5.418;2023-04-03T11:18:27;11.10;35.60
32296;DHT22;18781;51.550;5.418;2023-04-03T11:23:55;11.10;38.70
32296;DHT22;18781;51.550;5.418;2023-04-03T11:26:30;11.20;37.30
32296;DHT22;18781;51.550;5.418;2023-04-03T11:29:06;11.20;36.40
32296;DHT22;18781;51.550;5.418;2023-04-03T11:31:38;11.30;35.40
32296;DHT22;18781;51.550;5.418;2023-04-03T11:36:58;11.40;36.50
32296;DHT22;18781;51.550;5.418;2023-04-03T11:39:32;11.40;34.90
32296;DHT22;18781;51.550;5.418;2023-04-03T11:42:16;11.50;35.70
32296;DHT22;18781;51.550;5.418;2023-04-03T11:44:43;11.50;35.00
32296;DHT22;18781;51.550;5.418;2023-04-03T11:47:10;11.50;34.50
32296;DHT22;18781;51.550;5.418;2023-04-03T12:13:37;11.90;33.90
32296;DHT22;18781;51.550;5.418;2023-04-03T12:16:06;12.00;34.50
32296;DHT22;18781;51.550;5.418;2023-04-03T12:18:53;12.10;35.30
32296;DHT22;18781;51.550;5.418;2023-04-03T12:27:03;12.20;33.90
32296;DHT22;18781;51.550;5.418;2023-04-03T12:48:55;12.50;35.30
32296;DHT22;18781;51.550;5.418;2023-04-03T12:53:54;12.60;34.30
32296;DHT22;18781;51.550;5.418;2023-04-03T12:56:27;12.60;33.90
32296;DHT22;18781;51.550;5.418;2023-04-03T12:59:13;12.60;35.10
32296;DHT22;18781;51.550;5.418;2023-04-03T13:01:39;12.70;33.50
32296;DHT22;18781;51.550;5.418;2023-04-03T13:04:05;12.70;32.80
32296;DHT22;18781;51.550;5.418;2023-04-03T13:06:38;12.60;34.00
32296;DHT22;18781;51.550;5.418;2023-04-03T13:09:05;12.60;33.30
32296;DHT22;18781;51.550;5.418;2023-04-03T13:11:35;12.60;34.40
32296;DHT22;18781;51.550;5.418;2023-04-03T13:14:04;12.60;34.40
32296;DHT22;18781;51.550;5.418;2023-04-03T13:16:32;12.60;34.20
32296;DHT22;18781;51.550;5.418;2023-04-03T13:18:59;12.60;33.00
32296;DHT22;18781;51.550;5.418;2023-04-03T13:21:27;12.60;33.20
32296;DHT22;18781;51.550;5.418;2023-04-03T13:23:57;12.60;34.00
32296;DHT22;18781;51.550;5.418;2023-04-03T13:26:25;12.60;35.50
32296;DHT22;18781;51.550;5.418;2023-04-03T13:28:52;12.60;35.20
32296;DHT22;18781;51.550;5.418;2023-04-03T13:31:30;12.60;35.60
32296;DHT22;18781;51.550;5.418;2023-04-03T13:36:38;12.70;35.90
32296;DHT22;18781;51.550;5.418;2023-04-03T13:41:37;12.80;34.00
32296;DHT22;18781;51.550;5.418;2023-04-03T13:46:52;12.80;35.30
32296;DHT22;18781;51.550;5.418;2023-04-03T13:51:56;12.80;35.90
32296;DHT22;18781;51.550;5.418;2023-04-03T13:54:37;12.90;35.90
32296;DHT22;18781;51.550;5.418;2023-04-03T13:57:14;12.90;35.50
32296;DHT22;18781;51.550;5.418;2023-04-03T13:59:42;13.00;34.60
32296;DHT22;18781;51.550;5.418;2023-04-03T14:07:02;13.10;34.50
32296;DHT22;18781;51.550;5.418;2023-04-03T14:09:28;13.00;35.90
32296;DHT22;18781;51.550;5.418;2023-04-03T14:11:57;13.10;35.30
32296;DHT22;18781;51.550;5.418;2023-04-03T14:14:28;13.10;35.20
32296;DHT22;18781;51.550;5.418;2023-04-03T14:16:58;13.10;35.10
32296;DHT22;18781;51.550;5.418;2023-04-03T14:19:31;13.10;33.80
32296;DHT22;18781;51.550;5.418;2023-04-03T14:21:59;13.10;34.50
32296;DHT22;18781;51.550;5.418;2023-04-03T14:24:25;13.10;34.70
32296;DHT22;18781;51.550;5.418;2023-04-03T14:26:52;13.10;34.10
32296;DHT22;18781;51.550;5.418;2023-04-03T14:29:19;13.20;34.40
32296;DHT22;18781;51.550;5.418;2023-04-03T14:31:48;13.20;34.60
32296;DHT22;18781;51.550;5.418;2023-04-03T14:34:15;13.20;35.00
32296;DHT22;18781;51.550;5.418;2023-04-03T14:36:43;13.20;34.00
32296;DHT22;18781;51.550;5.418;2023-04-03T14:39:16;13.20;33.90
32296;DHT22;18781;51.550;5.418;2023-04-03T14:41:43;13.10;34.90
32296;DHT22;18781;51.550;5.418;2023-04-03T14:44:09;13.10;34.60
32296;DHT22;18781;51.550;5.418;2023-04-03T14:46:38;13.10;35.50
32296;DHT22;18781;51.550;5.418;2023-04-03T14:49:09;13.10;34.90
32296;DHT22;18781;51.550;5.418;2023-04-03T14:51:37;13.00;34.90
32296;DHT22;18781;51.550;5.418;2023-04-03T14:54:03;13.00;35.40
32296;DHT22;18781;51.550;5.418;2023-04-03T14:56:29;13.00;35.10
32296;DHT22;18781;51.550;5.418;2023-04-03T14:58:59;13.10;35.40
32296;DHT22;18781;51.550;5.418;2023-04-03T15:01:26;13.10;34.60
32296;DHT22;18781;51.550;5.418;2023-04-03T15:03:52;13.00;35.30
32296;DHT22;18781;51.550;5.418;2023-04-03T15:06:18;13.00;34.60
32296;DHT22;18781;51.550;5.418;2023-04-03T15:08:44;13.00;34.60
32296;DHT22;18781;51.550;5.418;2023-04-03T15:11:12;13.00;34.50
32296;DHT22;18781;51.550;5.418;2023-04-03T15:13:38;13.10;34.80
32296;DHT22;18781;51.550;5.418;2023-04-03T15:16:05;13.00;35.10
32296;DHT22;18781;51.550;5.418;2023-04-03T15:18:36;13.00;35.20
32296;DHT22;18781;51.550;5.418;2023-04-03T15:21:03;13.00;35.40
32296;DHT22;18781;51.550;5.418;2023-04-03T15:23:28;13.00;34.20
32296;DHT22;18781;51.550;5.418;2023-04-03T15:25:55;13.00;34.10
32296;DHT22;18781;51.550;5.418;2023-04-03T15:28:27;13.00;34.50
32296;DHT22;18781;51.550;5.418;2023-04-03T15:30:53;13.00;34.30
32296;DHT22;18781;51.550;5.418;2023-04-03T15:33:19;13.00;34.40
32296;DHT22;18781;51.550;5.418;2023-04-03T15:35:45;13.00;34.30
32296;DHT22;18781;51.550;5.418;2023-04-03T15:38:11;12.90;34.90
32296;DHT22;18781;51.550;5.418;2023-04-03T15:40:36;12.90;34.90
32296;DHT22;18781;51.550;5.418;2023-04-03T15:43:02;12.80;34.30
32296;DHT22;18781;51.550;5.418;2023-04-03T15:45:29;12.80;35.10
32296;DHT22;18781;51.550;5.418;2023-04-03T15:47:55;12.80;35.30
32296;DHT22;18781;51.550;5.418;2023-04-03T15:50:21;12.80;35.10
32296;DHT22;18781;51.550;5.418;2023-04-03T15:52:48;12.80;34.80
32296;DHT22;18781;51.550;5.418;2023-04-03T15:55:20;12.80;35.30
32296;DHT22;18781;51.550;5.418;2023-04-03T15:57:45;12.80;35.40
32296;DHT22;18781;51.550;5.418;2023-04-03T16:00:12;12.80;35.50
32296;DHT22;18781;51.550;5.418;2023-04-03T16:02:37;12.80;35.50
32296;DHT22;18781;51.550;5.418;2023-04-03T16:05:03;12.80;35.30
32296;DHT22;18781;51.550;5.418;2023-04-03T16:07:29;12.80;35.40
32296;DHT22;18781;51.550;5.418;2023-04-03T16:09:54;12.80;34.70
32296;DHT22;18781;51.550;5.418;2023-04-03T16:12:20;12.70;35.60
32296;DHT22;18781;51.550;5.418;2023-04-03T16:14:45;12.70;35.70
32296;DHT22;18781;51.550;5.418;2023-04-03T16:17:11;12.70;35.30
32296;DHT22;18781;51.550;5.418;2023-04-03T16:19:37;12.70;35.20
32296;DHT22;18781;51.550;5.418;2023-04-03T16:22:02;12.70;34.90
32296;DHT22;18781;51.550;5.418;2023-04-03T16:24:29;12.60;35.10
32296;DHT22;18781;51.550;5.418;2023-04-03T16:26:54;12.60;35.30
32296;DHT22;18781;51.550;5.418;2023-04-03T16:29:20;12.50;35.70
32296;DHT22;18781;51.550;5.418;2023-04-03T16:31:46;12.50;35.50
32296;DHT22;18781;51.550;5.418;2023-04-03T16:34:12;12.50;35.50
32296;DHT22;18781;51.550;5.418;2023-04-03T16:36:37;12.50;35.40
32296;DHT22;18781;51.550;5.418;2023-04-03T16:39:03;12.40;36.10
32296;DHT22;18781;51.550;5.418;2023-04-03T16:41:29;12.40;35.80
32296;DHT22;18781;51.550;5.418;2023-04-03T16:43:54;12.30;35.90
32296;DHT22;18781;51.550;5.418;2023-04-03T16:46:20;12.30;35.60
32296;DHT22;18781;51.550;5.418;2023-04-03T16:48:46;12.40;35.60
32296;DHT22;18781;51.550;5.418;2023-04-03T16:51:12;12.30;35.80
32296;DHT22;18781;51.550;5.418;2023-04-03T16:53:38;12.30;35.60
32296;DHT22;18781;51.550;5.418;2023-04-03T16:56:04;12.30;35.80
32296;DHT22;18781;51.550;5.418;2023-04-03T16:58:30;12.30;36.10
32296;DHT22;18781;51.550;5.418;2023-04-03T17:00:55;12.20;36.20
32296;DHT22;18781;51.550;5.418;2023-04-03T17:03:21;12.20;36.30
32296;DHT22;18781;51.550;5.418;2023-04-03T17:05:49;12.10;36.40
32296;DHT22;18781;51.550;5.418;2023-04-03T17:08:16;12.10;36.60
32296;DHT22;18781;51.550;5.418;2023-04-03T17:10:42;12.10;36.30
32296;DHT22;18781;51.550;5.418;2023-04-03T17:13:08;12.10;35.80
32296;DHT22;18781;51.550;5.418;2023-04-03T17:15:34;12.10;36.20
32296;DHT22;18781;51.550;5.418;2023-04-03T17:18:00;12.00;36.50
32296;DHT22;18781;51.550;5.418;2023-04-03T17:20:25;12.00;36.80
32296;DHT22;18781;51.550;5.418;2023-04-03T17:22:51;11.90;37.10
32296;DHT22;18781;51.550;5.418;2023-04-03T17:25:17;11.90;37.10
32296;DHT22;18781;51.550;5.418;2023-04-03T17:27:42;11.80;37.30
32296;DHT22;18781;51.550;5.418;2023-04-03T17:30:08;11.80;37.10
32296;DHT22;18781;51.550;5.418;2023-04-03T17:32:34;11.80;37.50
32296;DHT22;18781;51.550;5.418;2023-04-03T17:34:59;11.80;37.20
32296;DHT22;18781;51.550;5.418;2023-04-03T17:37:25;11.80;37.30
32296;DHT22;18781;51.550;5.418;2023-04-03T17:39:50;11.80;37.30
32296;DHT22;18781;51.550;5.418;2023-04-03T17:42:16;11.70;37.40
32296;DHT22;18781;51.550;5.418;2023-04-03T17:44:42;11.60;37.60
32296;DHT22;18781;51.550;5.418;2023-04-03T17:47:07;11.60;37.90